createdAt,value
2018-05-10T00:00:52.352Z,56.20
2018-05-10T00:03:20.527Z,56.21
2018-05-10T00:05:48.705Z,56.14
2018-05-10T00:08:16.858Z,55.84
2018-05-10T00:10:45.051Z,55.88
2018-05-10T00:13:13.214Z,56.08
2018-05-10T00:15:41.475Z,56.10
2018-05-10T00:18:09.580Z,56.23
2018-05-10T00:20:37.767Z,56.26
2018-05-10T00:23:05.954Z,56.33
2018-05-10T00:25:34.161Z,56.39
2018-05-10T00:28:02.381Z,56.15
2018-05-10T00:30:30.564Z,56.58
2018-05-10T00:32:58.775Z,56.50
2018-05-10T00:35:26.969Z,56.75
2018-05-10T00:37:55.171Z,56.84
2018-05-10T00:40:23.367Z,56.81
2018-05-10T00:42:51.587Z,57.01
2018-05-10T00:45:19.768Z,57.08
2018-05-10T00:47:47.961Z,57.07
2018-05-10T00:50:16.162Z,57.22
2018-05-10T00:52:44.318Z,56.95
2018-05-10T00:55:12.519Z,56.96
2018-05-10T00:57:40.710Z,57.00
2018-05-10T01:00:08.911Z,57.09
2018-05-10T01:02:37.074Z,56.97
2018-05-10T01:05:05.258Z,56.97
2018-05-10T01:07:33.430Z,57.10
2018-05-10T01:10:01.653Z,57.36
2018-05-10T01:12:29.839Z,57.33
2018-05-10T01:14:58.008Z,57.48
2018-05-10T01:17:26.211Z,57.37
2018-05-10T01:19:54.410Z,57.13
2018-05-10T01:22:22.619Z,56.76
2018-05-10T01:24:50.769Z,56.61
2018-05-10T01:27:18.962Z,56.58
2018-05-10T01:29:47.127Z,56.50
2018-05-10T01:32:15.309Z,56.52
2018-05-10T01:35:22.338Z,56.42
2018-05-10T01:37:50.536Z,56.45
2018-05-10T01:40:18.761Z,56.82
2018-05-10T01:42:47.160Z,56.90
2018-05-10T01:45:15.329Z,57.10
2018-05-10T01:47:43.480Z,57.20
2018-05-10T01:50:11.656Z,57.44
2018-05-10T01:52:39.842Z,57.52
2018-05-10T01:55:08.016Z,57.39
2018-05-10T01:57:36.208Z,57.52
2018-05-10T02:00:04.414Z,57.46
2018-05-10T02:02:32.651Z,57.52
2018-05-10T02:05:00.782Z,57.41
2018-05-10T02:07:28.963Z,57.52
2018-05-10T02:09:57.162Z,57.33
2018-05-10T02:12:25.388Z,57.44
2018-05-10T02:14:53.579Z,57.66
2018-05-10T02:17:21.762Z,57.56
2018-05-10T02:19:49.957Z,57.71
2018-05-10T02:22:18.170Z,57.80
2018-05-10T02:24:46.378Z,57.42
2018-05-10T02:27:14.564Z,57.35
2018-05-10T02:29:42.851Z,57.41
2018-05-10T02:32:10.983Z,57.60
2018-05-10T02:34:39.154Z,57.52
2018-05-10T02:37:07.357Z,57.56
2018-05-10T02:39:35.546Z,57.73
2018-05-10T02:42:03.762Z,57.61
2018-05-10T02:44:31.983Z,57.83
2018-05-10T02:47:00.190Z,57.93
2018-05-10T02:49:28.377Z,57.81
2018-05-10T02:51:56.616Z,58.20
2018-05-10T02:54:24.768Z,58.00
2018-05-10T02:56:52.972Z,58.22
2018-05-10T02:59:21.177Z,58.48
2018-05-10T03:01:49.341Z,58.72
2018-05-10T03:04:17.516Z,58.76
2018-05-10T03:06:45.734Z,58.67
2018-05-10T03:09:13.891Z,58.78
2018-05-10T03:11:42.110Z,58.45
2018-05-10T03:14:10.269Z,58.53
2018-05-10T03:16:38.461Z,58.69
2018-05-10T03:19:06.634Z,59.03
2018-05-10T03:21:34.844Z,59.25
2018-05-10T03:24:03.017Z,59.57
2018-05-10T03:26:31.183Z,60.24
2018-05-10T03:28:59.326Z,60.68
2018-05-10T03:31:27.522Z,60.43
2018-05-10T03:33:55.708Z,60.80
2018-05-10T03:36:23.889Z,62.15
2018-05-10T03:38:52.058Z,63.23
2018-05-10T03:41:20.251Z,63.19
2018-05-10T03:43:48.457Z,63.69
2018-05-10T03:46:16.662Z,65.23
2018-05-10T03:48:44.838Z,64.92
2018-05-10T03:51:13.036Z,65.21
2018-05-10T03:53:41.207Z,64.66
2018-05-10T03:56:09.379Z,64.80
2018-05-10T03:58:37.553Z,65.71
2018-05-10T04:01:05.740Z,65.07
2018-05-10T04:04:03.051Z,65.89
2018-05-10T04:07:08.087Z,65.88
2018-05-10T04:10:45.211Z,64.97
2018-05-10T04:13:13.397Z,68.94
2018-05-10T04:15:41.615Z,68.37
2018-05-10T04:18:09.814Z,68.79
2018-05-10T04:20:39.627Z,68.78
2018-05-10T04:23:07.798Z,67.80
2018-05-10T04:25:35.985Z,67.49
2018-05-10T04:28:04.164Z,66.08
2018-05-10T04:30:32.324Z,66.00
2018-05-10T04:33:00.503Z,66.79
2018-05-10T04:35:28.669Z,66.95
2018-05-10T04:37:56.865Z,67.44
2018-05-10T04:40:25.058Z,66.60
2018-05-10T04:42:53.267Z,67.33
2018-05-10T04:45:21.470Z,66.95
2018-05-10T04:47:49.632Z,67.75
2018-05-10T04:50:17.807Z,66.26
2018-05-10T04:52:45.997Z,66.97
2018-05-10T04:55:14.191Z,66.84
2018-05-10T04:57:42.354Z,67.10
2018-05-10T05:00:10.525Z,67.14
2018-05-10T05:02:38.756Z,66.99
2018-05-10T05:05:06.936Z,67.21
2018-05-10T05:07:35.123Z,67.64
2018-05-10T05:10:03.323Z,67.79
2018-05-10T05:12:31.518Z,68.77
2018-05-10T05:14:59.712Z,67.79
2018-05-10T05:17:27.904Z,68.21
2018-05-10T05:19:56.116Z,67.97
2018-05-10T05:22:24.303Z,68.56
2018-05-10T05:24:52.490Z,68.04
2018-05-10T05:27:20.647Z,68.17
2018-05-10T05:29:48.814Z,68.70
2018-05-10T05:32:17.024Z,69.42
2018-05-10T05:34:45.216Z,68.93
2018-05-10T05:37:13.409Z,67.60
2018-05-10T05:39:41.575Z,68.01
2018-05-10T05:42:09.792Z,68.48
2018-05-10T05:44:37.964Z,67.37
2018-05-10T05:47:06.212Z,68.07
2018-05-10T05:49:34.393Z,68.40
2018-05-10T05:52:02.556Z,67.90
2018-05-10T05:54:30.740Z,66.99
2018-05-10T05:56:58.914Z,67.72
2018-05-10T05:59:27.118Z,67.55
2018-05-10T06:01:55.264Z,67.01
2018-05-10T06:04:23.471Z,66.77
2018-05-10T06:06:51.626Z,67.81
2018-05-10T06:09:19.856Z,67.44
2018-05-10T06:11:48.091Z,67.68
2018-05-10T06:14:16.317Z,67.80
2018-05-10T06:16:44.511Z,66.75
2018-05-10T06:19:12.701Z,66.70
2018-05-10T06:21:40.873Z,66.73
2018-05-10T06:24:09.068Z,65.95
2018-05-10T06:26:37.238Z,65.77
2018-05-10T06:29:05.494Z,65.65
2018-05-10T06:31:33.668Z,65.92
2018-05-10T06:34:01.863Z,66.87
2018-05-10T06:36:30.051Z,65.14
2018-05-10T06:38:58.248Z,66.32
2018-05-10T06:41:26.463Z,65.35
2018-05-10T06:43:54.609Z,65.98
2018-05-10T06:46:22.796Z,67.20
2018-05-10T06:48:50.986Z,66.33
2018-05-10T06:51:19.182Z,65.85
2018-05-10T06:53:47.346Z,65.59
2018-05-10T06:56:15.520Z,64.96
2018-05-10T06:58:43.700Z,65.53
2018-05-10T07:01:11.884Z,64.59
2018-05-10T07:03:40.076Z,64.92
2018-05-10T07:06:08.323Z,65.74
2018-05-10T07:08:36.555Z,64.57
2018-05-10T07:11:04.707Z,64.12
2018-05-10T07:13:32.897Z,63.50
2018-05-10T07:16:01.097Z,63.17
2018-05-10T07:18:29.288Z,63.11
2018-05-10T07:20:57.525Z,62.57
2018-05-10T07:23:25.690Z,62.37
2018-05-10T07:25:53.885Z,62.34
2018-05-10T07:28:22.061Z,62.88
2018-05-10T07:30:50.228Z,63.73
2018-05-10T07:33:18.399Z,62.60
2018-05-10T07:35:46.582Z,62.91
2018-05-10T07:38:14.760Z,64.63
2018-05-10T07:40:42.935Z,63.68
2018-05-10T07:43:11.120Z,62.83
2018-05-10T07:45:39.342Z,62.73
2018-05-10T07:48:07.547Z,63.33
2018-05-10T07:50:35.752Z,62.45
2018-05-10T07:53:03.947Z,62.46
2018-05-10T07:55:32.119Z,64.02
2018-05-10T07:58:00.295Z,63.71
2018-05-10T08:00:28.466Z,64.28
2018-05-10T08:02:56.664Z,62.86
2018-05-10T08:05:24.853Z,62.64
2018-05-10T08:07:53.062Z,61.74
2018-05-10T08:10:21.249Z,62.50
2018-05-10T08:12:49.412Z,61.93
2018-05-10T08:15:17.609Z,62.49
2018-05-10T08:17:45.761Z,62.27
2018-05-10T08:20:13.935Z,62.56
2018-05-10T08:22:42.113Z,59.56
2018-05-10T08:25:10.307Z,62.18
2018-05-10T08:27:46.495Z,60.61
2018-05-10T08:30:15.017Z,61.99
2018-05-10T08:32:43.308Z,62.88
2018-05-10T08:35:11.876Z,62.57
2018-05-10T08:37:40.430Z,63.32
2018-05-10T08:40:08.766Z,63.45
2018-05-10T08:42:37.441Z,62.49
2018-05-10T08:45:06.153Z,64.00
2018-05-10T08:47:34.412Z,61.55
2018-05-10T08:50:02.768Z,62.45
2018-05-10T08:52:31.257Z,61.63
2018-05-10T08:54:59.710Z,60.83
2018-05-10T08:57:28.270Z,61.31
2018-05-10T08:59:56.656Z,61.65
2018-05-10T09:02:25.096Z,60.96
2018-05-10T09:04:53.561Z,60.78
2018-05-10T09:07:22.304Z,60.49
2018-05-10T09:09:50.967Z,61.01
2018-05-10T09:12:19.619Z,60.80
2018-05-10T09:14:49.174Z,61.25
2018-05-10T09:17:20.224Z,60.65
2018-05-10T09:19:48.469Z,61.69
2018-05-10T09:22:16.940Z,61.07
2018-05-10T09:24:48.099Z,61.99
2018-05-10T09:27:16.756Z,62.20
2018-05-10T09:29:45.286Z,60.61
2018-05-10T09:32:14.073Z,60.11
2018-05-10T09:34:42.435Z,59.09
2018-05-10T09:37:11.035Z,58.58
2018-05-10T09:39:39.421Z,58.32
2018-05-10T09:42:08.188Z,59.14
2018-05-10T09:44:36.687Z,59.18
2018-05-10T09:47:05.061Z,59.96
2018-05-10T09:49:33.609Z,60.11
2018-05-10T09:52:01.768Z,59.61
2018-05-10T09:54:30.457Z,59.25
2018-05-10T09:56:58.955Z,59.11
2018-05-10T09:59:27.250Z,57.46
2018-05-10T10:01:55.894Z,55.48
2018-05-10T10:04:24.179Z,51.71
2018-05-10T10:06:52.594Z,52.84
2018-05-10T10:09:21.873Z,50.52
2018-05-10T10:11:50.661Z,52.00
2018-05-10T10:14:19.574Z,53.94
2018-05-10T10:16:49.795Z,54.34
2018-05-10T10:19:18.348Z,56.14
2018-05-10T10:21:46.648Z,56.68
2018-05-10T10:24:14.989Z,58.68
2018-05-10T10:26:43.315Z,58.32
2018-05-10T10:29:11.709Z,58.60
2018-05-10T10:31:40.197Z,59.64
2018-05-10T10:34:08.751Z,59.87
2018-05-10T10:36:37.286Z,59.90
2018-05-10T10:39:06.855Z,60.47
2018-05-10T10:41:34.508Z,60.27
2018-05-10T10:44:03.638Z,61.41
2018-05-10T10:46:32.280Z,60.90
2018-05-10T10:49:00.954Z,60.61
2018-05-10T10:51:29.330Z,61.10
2018-05-10T10:53:57.896Z,60.81
2018-05-10T10:56:26.712Z,61.65
2018-05-10T10:58:55.131Z,60.80
2018-05-10T11:01:23.763Z,60.32
2018-05-10T11:03:52.202Z,60.27
2018-05-10T11:06:23.175Z,60.41
2018-05-10T11:08:51.679Z,58.54
2018-05-10T11:11:19.950Z,57.50
2018-05-10T11:13:48.642Z,57.40
2018-05-10T11:16:17.016Z,57.62
2018-05-10T11:18:45.579Z,56.14
2018-05-10T11:21:14.078Z,56.27
2018-05-10T11:23:42.644Z,58.05
2018-05-10T11:26:11.035Z,57.53
2018-05-10T11:28:40.632Z,57.65
2018-05-10T11:31:09.482Z,56.98
2018-05-10T11:33:39.490Z,57.09
2018-05-10T11:36:08.188Z,55.98
2018-05-10T11:38:36.913Z,56.85
2018-05-10T11:41:17.126Z,56.54
2018-05-10T11:43:44.398Z,57.18
2018-05-10T11:46:13.164Z,57.47
2018-05-10T11:48:41.726Z,56.87
2018-05-10T11:51:10.813Z,58.28
2018-05-10T11:53:39.203Z,57.43
2018-05-10T11:58:51.719Z,57.27
2018-05-10T12:01:20.259Z,57.60
2018-05-10T12:03:49.052Z,57.66
2018-05-10T12:06:18.224Z,58.30
2018-05-10T12:08:46.718Z,58.04
2018-05-10T12:11:15.752Z,57.71
2018-05-10T12:13:44.078Z,56.01
2018-05-10T12:16:12.617Z,55.05
2018-05-10T12:18:40.990Z,54.89
2018-05-10T12:21:09.417Z,55.45
2018-05-10T12:23:38.064Z,54.16
2018-05-10T12:26:06.467Z,52.43
2018-05-10T12:28:35.226Z,52.53
2018-05-10T12:31:03.666Z,53.33
2018-05-10T12:33:33.885Z,53.32
2018-05-10T12:36:02.379Z,53.03
2018-05-10T12:38:31.115Z,52.82
2018-05-10T12:40:59.661Z,54.11
2018-05-10T12:43:28.390Z,52.78
2018-05-10T12:45:56.894Z,52.99
2018-05-10T12:48:25.166Z,51.73
2018-05-10T12:50:54.114Z,52.76
2018-05-10T12:53:22.551Z,51.78
2018-05-10T12:55:50.972Z,52.02
2018-05-10T12:58:20.716Z,51.86
2018-05-10T13:00:50.009Z,51.69
2018-05-10T13:03:18.179Z,51.10
2018-05-10T13:05:46.725Z,51.35
2018-05-10T13:08:15.117Z,52.57
2018-05-10T13:10:43.398Z,51.65
2018-05-10T13:13:12.077Z,52.58
2018-05-10T13:15:40.764Z,49.58
2018-05-10T13:18:09.392Z,49.47
2018-05-10T13:20:37.796Z,48.06
2018-05-10T13:23:06.103Z,46.76
2018-05-10T13:25:34.631Z,47.54
2018-05-10T13:28:05.786Z,48.28
2018-05-10T13:30:34.151Z,48.12
2018-05-10T13:33:02.801Z,49.11
2018-05-10T13:35:31.459Z,50.45
2018-05-10T13:37:59.768Z,50.59
2018-05-10T13:40:28.462Z,51.52
2018-05-10T13:42:57.020Z,51.75
2018-05-10T13:45:25.459Z,51.38
2018-05-10T13:47:56.463Z,50.07
2018-05-10T13:50:24.830Z,50.75
2018-05-10T13:52:53.264Z,50.83
2018-05-10T13:55:21.900Z,51.39
2018-05-10T13:57:50.084Z,50.87
2018-05-10T14:00:18.478Z,49.62
2018-05-10T14:02:46.894Z,48.03
2018-05-10T14:05:15.364Z,47.83
2018-05-10T14:07:44.006Z,47.78
2018-05-10T14:10:12.733Z,48.14
2018-05-10T14:12:41.389Z,48.49
2018-05-10T14:15:09.693Z,48.45
2018-05-10T14:17:38.013Z,48.18
2018-05-10T14:20:06.440Z,47.28
2018-05-10T14:22:34.778Z,47.00
2018-05-10T14:25:03.200Z,47.45
2018-05-10T14:27:31.978Z,48.04
2018-05-10T14:30:01.257Z,46.83
2018-05-10T14:32:36.341Z,45.60
2018-05-10T14:35:04.673Z,46.25
2018-05-10T14:37:33.343Z,45.96
2018-05-10T14:40:01.726Z,46.11
2018-05-10T14:42:30.302Z,45.46
2018-05-10T14:44:58.738Z,45.70
2018-05-10T14:47:27.091Z,45.81
2018-05-10T14:49:55.767Z,45.25
2018-05-10T14:52:24.921Z,44.91
2018-05-10T14:54:53.246Z,44.86
2018-05-10T14:57:21.726Z,45.21
2018-05-10T14:59:51.092Z,45.70
2018-05-10T15:02:20.020Z,45.87
2018-05-10T15:04:50.889Z,44.71
2018-05-10T15:07:19.485Z,45.63
2018-05-10T15:09:47.923Z,47.61
2018-05-10T15:12:16.205Z,44.85
2018-05-10T15:14:44.690Z,44.37
2018-05-10T15:17:13.151Z,42.48
2018-05-10T15:19:41.561Z,42.26
2018-05-10T15:22:09.993Z,42.76
2018-05-10T15:24:38.709Z,41.95
2018-05-10T15:27:07.227Z,42.66
2018-05-10T15:29:35.843Z,41.37
2018-05-10T15:32:04.303Z,42.46
2018-05-10T15:34:33.439Z,43.30
2018-05-10T15:37:02.166Z,42.42
2018-05-10T15:39:30.450Z,41.44
2018-05-10T15:41:58.721Z,41.44
2018-05-10T15:44:27.380Z,41.04
2018-05-10T15:46:55.787Z,40.69
2018-05-10T15:49:24.566Z,41.20
2018-05-10T15:51:53.067Z,42.31
2018-05-10T15:54:21.732Z,42.47
2018-05-10T15:56:50.217Z,41.86
2018-05-10T15:59:18.814Z,42.07
2018-05-10T16:01:47.250Z,41.74
2018-05-10T16:04:15.994Z,42.78
2018-05-10T16:06:44.251Z,41.25
2018-05-10T16:09:12.394Z,40.72
2018-05-10T16:11:40.541Z,40.98
2018-05-10T16:14:08.735Z,39.86
2018-05-10T16:16:36.888Z,40.40
2018-05-10T16:19:05.104Z,40.77
2018-05-10T16:21:33.261Z,40.98
2018-05-10T16:24:01.428Z,41.98
2018-05-10T16:26:29.699Z,41.41
2018-05-10T16:28:57.794Z,41.11
2018-05-10T16:31:25.967Z,40.86
2018-05-10T16:33:54.149Z,41.53
2018-05-10T16:36:22.310Z,41.39
2018-05-10T16:38:50.500Z,41.41
2018-05-10T16:41:18.641Z,41.21
2018-05-10T16:43:46.848Z,41.97
2018-05-10T16:46:15.003Z,42.74
2018-05-10T16:48:43.184Z,42.78
2018-05-10T16:51:11.390Z,42.42
2018-05-10T16:53:39.582Z,42.82
2018-05-10T16:56:07.796Z,41.69
2018-05-10T16:58:35.973Z,41.96
2018-05-10T17:01:04.114Z,42.46
2018-05-10T17:03:32.314Z,43.34
2018-05-10T17:06:00.518Z,43.69
2018-05-10T17:08:28.709Z,43.24
2018-05-10T17:10:56.895Z,43.64
2018-05-10T17:13:25.088Z,44.37
2018-05-10T17:15:53.281Z,45.65
2018-05-10T17:18:21.491Z,45.90
2018-05-10T17:20:49.706Z,46.88
2018-05-10T17:23:17.880Z,47.59
2018-05-10T17:25:46.054Z,48.20
2018-05-10T17:28:14.208Z,48.45
2018-05-10T17:30:42.415Z,49.31
2018-05-10T17:33:10.590Z,49.08
2018-05-10T17:35:38.788Z,49.12
2018-05-10T17:38:06.961Z,47.82
2018-05-10T17:40:35.143Z,48.01
2018-05-10T17:43:03.394Z,48.10
2018-05-10T17:45:31.544Z,48.57
2018-05-10T17:47:59.733Z,49.13
2018-05-10T17:50:27.938Z,49.33
2018-05-10T17:52:56.099Z,49.70
2018-05-10T17:55:24.379Z,50.10
2018-05-10T17:57:52.447Z,50.80
2018-05-10T18:00:20.657Z,50.59
2018-05-10T18:02:48.798Z,51.00
2018-05-10T18:05:16.989Z,50.93
2018-05-10T18:07:45.131Z,51.49
2018-05-10T18:10:13.336Z,51.91
2018-05-10T18:12:41.482Z,51.40
2018-05-10T18:15:09.755Z,51.33
2018-05-10T18:17:37.922Z,51.62
2018-05-10T18:20:06.108Z,51.09
2018-05-10T18:22:34.304Z,51.20
2018-05-10T18:25:02.465Z,51.78
2018-05-10T18:27:30.632Z,51.24
2018-05-10T18:29:58.793Z,50.87
2018-05-10T18:32:26.972Z,51.30
2018-05-10T18:34:55.111Z,51.36
2018-05-10T18:37:23.305Z,51.37
2018-05-10T18:39:51.533Z,51.75
2018-05-10T18:42:19.677Z,51.92
2018-05-10T18:44:47.850Z,52.16
2018-05-10T18:47:16.005Z,52.29
2018-05-10T18:49:44.213Z,52.48
2018-05-10T18:52:12.372Z,52.75
2018-05-10T18:54:40.652Z,53.07
2018-05-10T18:57:08.739Z,53.83
2018-05-10T18:59:36.925Z,54.30
2018-05-10T19:02:05.110Z,54.46
2018-05-10T19:04:33.369Z,54.49
2018-05-10T19:07:01.504Z,54.91
2018-05-10T19:09:29.670Z,54.87
2018-05-10T19:11:57.857Z,55.12
2018-05-10T19:14:26.031Z,54.89
2018-05-10T19:16:54.211Z,55.37
2018-05-10T19:19:22.372Z,55.11
2018-05-10T19:21:50.614Z,54.98
2018-05-10T19:24:18.792Z,55.12
2018-05-10T19:26:46.984Z,55.09
2018-05-10T19:29:15.185Z,55.11
2018-05-10T19:31:43.382Z,55.23
2018-05-10T19:34:11.557Z,55.33
2018-05-10T19:36:39.736Z,55.14
2018-05-10T19:39:07.914Z,55.54
2018-05-10T19:41:36.130Z,55.73
2018-05-10T19:44:04.330Z,55.82
2018-05-10T19:46:32.524Z,56.42
2018-05-10T19:49:00.720Z,56.49
2018-05-10T19:51:28.921Z,56.31
2018-05-10T19:53:57.117Z,56.25
2018-05-10T19:56:25.264Z,56.57
2018-05-10T19:58:53.468Z,56.68
2018-05-10T20:01:21.624Z,56.17
2018-05-10T20:03:49.791Z,56.60
2018-05-10T20:06:17.992Z,56.60
2018-05-10T20:08:46.166Z,56.84
2018-05-10T20:11:14.328Z,56.78
2018-05-10T20:13:42.530Z,57.14
2018-05-10T20:16:10.684Z,57.39
2018-05-10T20:18:38.857Z,57.89
2018-05-10T20:21:07.084Z,58.10
2018-05-10T20:23:35.204Z,58.43
2018-05-10T20:26:03.486Z,58.44
2018-05-10T20:28:31.614Z,58.79
2018-05-10T20:30:59.737Z,59.02
2018-05-10T20:33:27.905Z,59.10
2018-05-10T20:35:56.093Z,59.23
2018-05-10T20:38:24.284Z,59.23
2018-05-10T20:40:52.457Z,59.61
2018-05-10T20:43:20.659Z,59.72
2018-05-10T20:45:48.834Z,60.09
2018-05-10T20:48:17.006Z,59.96
2018-05-10T20:50:45.212Z,60.09
2018-05-10T20:53:13.371Z,60.54
2018-05-10T20:55:41.557Z,60.49
2018-05-10T20:58:09.757Z,60.43
2018-05-10T21:00:37.940Z,60.68
2018-05-10T21:03:06.124Z,60.57
2018-05-10T21:05:34.284Z,60.57
2018-05-10T21:08:02.498Z,61.07
2018-05-10T21:10:30.691Z,61.37
2018-05-10T21:12:58.865Z,61.63
2018-05-10T21:15:27.059Z,61.80
2018-05-10T21:17:55.309Z,61.99
2018-05-10T21:20:23.424Z,62.16
2018-05-10T21:22:51.599Z,62.37
2018-05-10T21:25:19.767Z,62.55
2018-05-10T21:27:47.973Z,62.42
2018-05-10T21:30:16.297Z,62.29
2018-05-10T21:32:44.492Z,62.40
2018-05-10T21:35:12.666Z,62.70
2018-05-10T21:37:40.946Z,62.82
2018-05-10T21:40:09.041Z,63.21
2018-05-10T21:42:37.200Z,63.38
2018-05-10T21:45:05.404Z,63.02
2018-05-10T21:47:33.585Z,63.01
2018-05-10T21:50:04.983Z,62.83
2018-05-10T21:52:33.168Z,63.31
2018-05-10T21:55:01.342Z,63.59
2018-05-10T21:57:29.482Z,63.67
2018-05-10T21:59:57.683Z,63.40
2018-05-10T22:02:25.854Z,63.93
2018-05-10T22:04:54.024Z,63.83
2018-05-10T22:07:22.226Z,64.00
2018-05-10T22:09:50.433Z,63.82
2018-05-10T22:12:18.576Z,63.80
2018-05-10T22:14:46.761Z,63.85
2018-05-10T22:17:14.940Z,63.99
2018-05-10T22:19:43.123Z,64.02
2018-05-10T22:22:11.330Z,63.98
2018-05-10T22:24:39.487Z,64.10
2018-05-10T22:27:07.665Z,64.22
2018-05-10T22:29:36.098Z,64.12
2018-05-10T22:32:04.252Z,64.39
2018-05-10T22:34:32.421Z,64.46
2018-05-10T22:37:00.632Z,64.47
2018-05-10T22:39:28.818Z,64.39
2018-05-10T22:41:56.979Z,64.28
2018-05-10T22:44:25.216Z,64.19
2018-05-10T22:46:53.387Z,64.57
2018-05-10T22:49:21.568Z,64.92
2018-05-10T22:51:49.759Z,65.27
2018-05-10T22:54:17.932Z,65.44
2018-05-10T22:56:46.105Z,65.02
2018-05-10T22:59:14.277Z,65.20
2018-05-10T23:01:42.451Z,65.77
2018-05-10T23:04:10.787Z,65.79
2018-05-10T23:06:38.992Z,65.72
2018-05-10T23:09:07.185Z,65.70
2018-05-10T23:11:35.354Z,65.45
2018-05-10T23:14:03.524Z,65.32
2018-05-10T23:16:31.700Z,64.75
2018-05-10T23:18:59.885Z,64.33
2018-05-10T23:21:28.040Z,63.72
2018-05-10T23:23:56.232Z,63.47
2018-05-10T23:26:24.398Z,63.28
2018-05-10T23:28:52.550Z,63.73
2018-05-10T23:31:20.737Z,63.79
2018-05-10T23:33:48.991Z,63.27
2018-05-10T23:36:17.093Z,63.78
2018-05-10T23:38:45.255Z,63.79
2018-05-10T23:41:13.444Z,63.97
2018-05-10T23:43:41.627Z,63.67
2018-05-10T23:46:09.799Z,63.25
2018-05-10T23:48:38.015Z,63.36
2018-05-10T23:51:06.175Z,63.78
2018-05-10T23:53:34.375Z,64.04
2018-05-10T23:56:02.584Z,63.66
2018-05-10T23:58:30.736Z,63.81
